createdAt,value
2018-01-05T00:01:08.679Z,7.47
2018-01-05T00:03:37.463Z,7.50
2018-01-05T00:06:15.072Z,7.54
2018-01-05T00:08:44.457Z,7.56
2018-01-05T00:11:13.353Z,7.56
2018-01-05T00:13:41.851Z,7.49
2018-01-05T00:16:10.561Z,7.54
2018-01-05T00:18:40.275Z,7.54
2018-01-05T00:21:10.105Z,7.45
2018-01-05T00:23:38.925Z,7.50
2018-01-05T00:26:07.660Z,7.53
2018-01-05T00:28:36.344Z,7.50
2018-01-05T00:31:05.588Z,7.59
2018-01-05T00:33:34.151Z,7.59
2018-01-05T00:36:03.816Z,7.58
2018-01-05T00:38:32.661Z,7.60
2018-01-05T00:41:01.353Z,7.65
2018-01-05T00:43:30.037Z,7.64
2018-01-05T00:45:59.128Z,7.72
2018-01-05T00:48:28.200Z,7.78
2018-01-05T00:50:56.897Z,7.78
2018-01-05T00:53:25.516Z,7.79
2018-01-05T00:55:54.015Z,7.76
2018-01-05T00:58:22.591Z,7.78
2018-01-05T01:00:51.277Z,7.77
2018-01-05T01:03:20.185Z,7.76
2018-01-05T01:05:49.350Z,7.80
2018-01-05T01:08:18.042Z,7.80
2018-01-05T01:10:46.742Z,7.81
2018-01-05T01:13:15.425Z,7.86
2018-01-05T01:15:43.972Z,7.86
2018-01-05T01:18:12.895Z,7.93
2018-01-05T01:20:42.513Z,7.95
2018-01-05T01:23:11.197Z,7.98
2018-01-05T01:25:39.957Z,7.98
2018-01-05T01:28:08.579Z,8.11
2018-01-05T01:30:37.307Z,8.14
2018-01-05T01:33:05.959Z,8.06
2018-01-05T01:35:34.718Z,8.07
2018-01-05T01:38:03.277Z,8.08
2018-01-05T01:40:31.829Z,8.09
2018-01-05T01:43:00.397Z,8.19
2018-01-05T01:45:29.068Z,8.25
2018-01-05T01:47:57.624Z,8.19
2018-01-05T01:50:26.218Z,8.15
2018-01-05T01:52:55.065Z,8.22
2018-01-05T01:55:23.859Z,8.21
2018-01-05T01:57:52.605Z,8.25
2018-01-05T02:00:22.157Z,8.25
2018-01-05T02:02:50.970Z,8.33
2018-01-05T02:05:19.495Z,8.36
2018-01-05T02:07:49.133Z,8.22
2018-01-05T02:10:17.800Z,8.25
2018-01-05T02:12:46.466Z,8.14
2018-01-05T02:15:15.398Z,8.17
2018-01-05T02:17:44.037Z,8.13
2018-01-05T02:20:12.650Z,8.17
2018-01-05T02:22:41.271Z,8.20
2018-01-05T02:25:10.153Z,8.22
2018-01-05T02:27:39.192Z,8.19
2018-01-05T02:30:07.962Z,8.25
2018-01-05T02:32:36.613Z,8.23
2018-01-05T02:35:05.292Z,8.23
2018-01-05T02:37:33.886Z,8.17
2018-01-05T02:40:02.486Z,8.24
2018-01-05T02:42:31.280Z,8.27
2018-01-05T02:45:00.024Z,8.22
2018-01-05T02:47:28.920Z,8.24
2018-01-05T02:49:57.772Z,8.21
2018-01-05T02:52:27.551Z,8.28
2018-01-05T02:54:56.391Z,8.19
2018-01-05T02:57:24.957Z,8.40
2018-01-05T02:59:53.614Z,8.45
2018-01-05T03:02:22.139Z,8.35
2018-01-05T03:04:50.853Z,8.40
2018-01-05T03:07:19.664Z,8.36
2018-01-05T03:09:51.381Z,8.27
2018-01-05T03:12:20.285Z,8.18
2018-01-05T03:14:48.946Z,8.26
2018-01-05T03:17:17.681Z,8.20
2018-01-05T03:19:46.709Z,8.06
2018-01-05T03:22:15.456Z,8.09
2018-01-05T03:24:44.077Z,7.99
2018-01-05T03:27:12.828Z,7.95
2018-01-05T03:29:41.493Z,7.97
2018-01-05T03:32:10.152Z,7.94
2018-01-05T03:34:38.681Z,8.12
2018-01-05T03:37:07.183Z,8.04
2018-01-05T03:39:35.776Z,8.02
2018-01-05T03:42:04.307Z,7.98
2018-01-05T03:44:33.157Z,8.07
2018-01-05T03:47:01.688Z,7.87
2018-01-05T03:49:30.224Z,7.91
2018-01-05T03:51:59.069Z,7.86
2018-01-05T03:54:27.528Z,7.84
2018-01-05T03:56:56.371Z,7.81
2018-01-05T03:59:24.927Z,7.98
2018-01-05T04:01:53.557Z,7.89
2018-01-05T04:04:22.237Z,7.97
2018-01-05T04:06:53.608Z,8.05
2018-01-05T04:09:22.637Z,8.13
2018-01-05T04:11:51.244Z,8.08
2018-01-05T04:14:19.865Z,8.06
2018-01-05T04:16:48.587Z,8.09
2018-01-05T04:19:17.141Z,8.11
2018-01-05T04:21:45.947Z,8.02
2018-01-05T04:24:14.781Z,8.00
2018-01-05T04:26:43.544Z,7.92
2018-01-05T04:29:12.165Z,7.91
2018-01-05T04:31:40.753Z,7.91
2018-01-05T04:34:09.331Z,7.98
2018-01-05T04:36:38.013Z,8.04
2018-01-05T04:39:06.833Z,7.97
2018-01-05T04:41:35.359Z,7.90
2018-01-05T04:44:03.918Z,7.84
2018-01-05T04:46:32.645Z,7.80
2018-01-05T04:49:01.205Z,7.80
2018-01-05T04:51:29.964Z,7.69
2018-01-05T04:53:59.470Z,7.64
2018-01-05T04:56:28.157Z,7.67
2018-01-05T04:58:56.804Z,7.64
2018-01-05T05:04:20.918Z,7.72
2018-01-05T05:06:49.675Z,7.64
2018-01-05T05:09:18.853Z,7.70
2018-01-05T05:11:51.086Z,7.63
2018-01-05T05:14:20.511Z,7.56
2018-01-05T05:16:49.303Z,7.54
2018-01-05T05:19:18.325Z,7.49
2018-01-05T05:21:47.165Z,7.44
2018-01-05T05:24:15.644Z,7.46
2018-01-05T05:26:44.351Z,7.38
2018-01-05T05:29:12.897Z,7.38
2018-01-05T05:31:41.739Z,7.39
2018-01-05T05:34:10.597Z,7.34
2018-01-05T05:36:39.228Z,7.22
2018-01-05T05:39:07.945Z,7.34
2018-01-05T05:41:36.897Z,7.31
2018-01-05T05:44:05.640Z,7.31
2018-01-05T05:46:34.688Z,7.39
2018-01-05T05:49:03.509Z,7.36
2018-01-05T05:51:32.429Z,7.36
2018-01-05T05:54:02.093Z,7.36
2018-01-05T05:56:34.853Z,7.34
2018-01-05T05:59:03.638Z,7.29
2018-01-05T06:01:32.322Z,7.35
2018-01-05T06:04:01.075Z,7.24
2018-01-05T06:06:30.021Z,7.18
2018-01-05T06:08:59.186Z,7.14
2018-01-05T06:11:34.163Z,7.03
2018-01-05T06:14:04.119Z,6.99
2018-01-05T06:16:32.808Z,7.02
2018-01-05T06:19:01.708Z,7.05
2018-01-05T06:21:30.310Z,7.00
2018-01-05T06:24:02.745Z,6.94
2018-01-05T06:26:32.675Z,6.90
2018-01-05T06:29:02.493Z,6.78
2018-01-05T06:31:31.109Z,6.78
2018-01-05T06:33:59.761Z,6.75
2018-01-05T06:36:29.001Z,6.76
2018-01-05T06:38:58.122Z,6.76
2018-01-05T06:41:26.647Z,6.71
2018-01-05T06:43:55.402Z,6.72
2018-01-05T06:46:24.344Z,6.60
2018-01-05T06:48:53.910Z,6.68
2018-01-05T06:51:22.620Z,6.66
2018-01-05T06:53:51.172Z,6.74
2018-01-05T06:56:20.187Z,6.79
2018-01-05T06:58:48.833Z,6.78
2018-01-05T07:01:17.978Z,6.78
2018-01-05T07:03:46.664Z,6.80
2018-01-05T07:06:15.504Z,6.84
2018-01-05T07:08:44.241Z,6.86
2018-01-05T07:11:12.889Z,6.94
2018-01-05T07:13:41.392Z,6.87
2018-01-05T07:16:09.970Z,6.87
2018-01-05T07:18:38.475Z,6.92
2018-01-05T07:21:07.298Z,6.88
2018-01-05T07:23:35.901Z,6.87
2018-01-05T07:26:04.743Z,6.88
2018-01-05T07:28:33.367Z,6.92
2018-01-05T07:31:02.072Z,6.96
2018-01-05T07:33:30.733Z,6.95
2018-01-05T07:35:59.334Z,6.99
2018-01-05T07:38:28.336Z,7.04
2018-01-05T07:40:57.049Z,7.00
2018-01-05T07:43:25.632Z,7.08
2018-01-05T07:45:55.634Z,7.11
2018-01-05T07:48:24.997Z,7.16
2018-01-05T07:50:53.794Z,7.18
2018-01-05T07:53:22.391Z,7.16
2018-01-05T07:55:51.277Z,7.20
2018-01-05T07:58:26.471Z,7.22
2018-01-05T08:00:58.209Z,7.31
2018-01-05T08:03:36.128Z,7.33
2018-01-05T08:06:04.764Z,7.37
2018-01-05T08:08:33.360Z,7.38
2018-01-05T08:11:02.058Z,7.35
2018-01-05T08:13:30.990Z,7.47
2018-01-05T08:15:59.776Z,7.44
2018-01-05T08:18:28.666Z,7.47
2018-01-05T08:20:57.209Z,7.52
2018-01-05T08:23:25.774Z,7.55
2018-01-05T08:25:54.311Z,7.53
2018-01-05T08:28:25.431Z,7.58
2018-01-05T08:30:54.852Z,7.60
2018-01-05T08:33:24.099Z,7.67
2018-01-05T08:35:52.793Z,7.71
2018-01-05T08:38:21.501Z,7.77
2018-01-05T08:40:50.144Z,7.90
2018-01-05T08:43:19.191Z,7.98
2018-01-05T08:45:47.844Z,8.04
2018-01-05T08:48:16.457Z,8.04
2018-01-05T08:50:45.321Z,8.05
2018-01-05T08:53:13.953Z,8.12
2018-01-05T08:55:42.832Z,8.06
2018-01-05T08:58:11.756Z,8.07
2018-01-05T09:00:41.451Z,8.08
2018-01-05T09:03:10.350Z,8.05
2018-01-05T09:05:39.675Z,8.07
2018-01-05T09:08:08.389Z,8.09
2018-01-05T09:10:37.242Z,8.07
2018-01-05T09:13:06.086Z,8.16
2018-01-05T09:15:35.260Z,8.16
2018-01-05T09:18:04.313Z,8.19
2018-01-05T09:20:33.470Z,8.22
2018-01-05T09:23:02.946Z,8.18
2018-01-05T09:25:31.644Z,8.16
2018-01-05T09:28:00.737Z,8.26
2018-01-05T09:30:29.565Z,8.24
2018-01-05T09:32:58.412Z,8.36
2018-01-05T09:35:27.160Z,8.46
2018-01-05T09:37:55.746Z,8.59
2018-01-05T09:40:24.352Z,8.59
2018-01-05T09:42:53.029Z,8.64
2018-01-05T09:45:21.868Z,8.76
2018-01-05T09:47:50.743Z,8.72
2018-01-05T09:50:19.300Z,8.78
